createdAt,value
2023-04-07T00:00:45.729Z,1.67
2023-04-07T00:03:13.706Z,1.80
2023-04-07T00:05:41.660Z,2.40
2023-04-07T00:08:09.540Z,2.20
2023-04-07T00:10:37.428Z,2.87
2023-04-07T00:13:05.272Z,2.67
2023-04-07T00:15:34.520Z,2.70
2023-04-07T00:18:02.431Z,2.10
2023-04-07T00:20:30.294Z,2.40
2023-04-07T00:22:58.191Z,2.10
2023-04-07T00:25:26.235Z,2.10
2023-04-07T00:27:54.126Z,2.10
2023-04-07T00:30:22.079Z,2.00
2023-04-07T00:32:51.773Z,1.60
2023-04-07T00:35:19.946Z,2.20
2023-04-07T00:37:47.833Z,2.03
2023-04-07T00:40:15.683Z,1.77
2023-04-07T00:42:43.606Z,1.93
2023-04-07T00:45:12.781Z,1.93
2023-04-07T00:47:40.756Z,2.30
2023-04-07T00:50:11.103Z,2.03
2023-04-07T00:52:38.950Z,1.60
2023-04-07T00:55:07.610Z,2.23
2023-04-07T00:57:35.453Z,2.10
2023-04-07T01:00:03.847Z,1.93
2023-04-07T01:02:35.242Z,2.47
2023-04-07T01:05:08.393Z,1.90
2023-04-07T01:07:40.839Z,1.97
2023-04-07T01:10:09.791Z,2.07
2023-04-07T01:12:39.718Z,1.77
2023-04-07T01:15:09.164Z,1.73
2023-04-07T01:17:38.030Z,1.60
2023-04-07T01:20:08.337Z,1.40
2023-04-07T01:22:40.351Z,1.47
2023-04-07T01:25:28.806Z,2.10
2023-04-07T01:28:02.496Z,1.50
2023-04-07T01:30:32.506Z,1.77
2023-04-07T01:33:01.219Z,1.77
2023-04-07T01:35:30.559Z,1.80
2023-04-07T01:37:58.428Z,1.93
2023-04-07T01:40:26.386Z,1.77
2023-04-07T01:42:54.279Z,1.80
2023-04-07T01:45:22.280Z,1.80
2023-04-07T01:47:51.551Z,1.80
2023-04-07T01:50:19.443Z,1.70
2023-04-07T01:52:47.310Z,1.90
2023-04-07T01:55:15.163Z,1.60
2023-04-07T01:57:43.034Z,1.63
2023-04-07T02:00:11.754Z,1.57
2023-04-07T02:02:42.847Z,1.80
2023-04-07T02:05:14.549Z,1.50
2023-04-07T02:07:44.246Z,1.77
2023-04-07T02:10:13.296Z,1.80
2023-04-07T02:12:41.424Z,1.70
2023-04-07T02:18:07.358Z,1.50
2023-04-07T02:20:36.870Z,1.50
2023-04-07T02:23:04.734Z,1.60
2023-04-07T02:25:34.147Z,1.60
2023-04-07T02:28:02.030Z,1.47
2023-04-07T02:30:29.861Z,1.63
2023-04-07T02:32:57.839Z,1.73
2023-04-07T02:35:25.670Z,1.70
2023-04-07T02:37:54.907Z,1.50
2023-04-07T02:40:22.734Z,1.90
2023-04-07T02:42:50.589Z,1.60
2023-04-07T02:45:18.470Z,1.50
2023-04-07T02:47:46.561Z,1.50
2023-04-07T02:50:14.462Z,1.70
2023-04-07T02:52:42.310Z,1.60
2023-04-07T02:55:11.820Z,1.67
2023-04-07T02:57:39.673Z,2.03
2023-04-07T03:00:08.650Z,1.90
2023-04-07T03:02:36.733Z,1.60
2023-04-07T03:05:05.014Z,1.60
2023-04-07T03:07:32.973Z,1.80
2023-04-07T03:10:01.065Z,1.53
2023-04-07T03:12:30.446Z,1.90
2023-04-07T03:14:58.364Z,1.60
2023-04-07T03:17:26.316Z,1.43
2023-04-07T03:19:54.263Z,1.60
2023-04-07T03:22:22.153Z,1.70
2023-04-07T03:24:50.091Z,2.00
2023-04-07T03:27:18.493Z,1.90
2023-04-07T03:29:47.938Z,1.97
2023-04-07T03:32:15.869Z,1.67
2023-04-07T03:34:43.734Z,1.90
2023-04-07T03:37:11.601Z,1.77
2023-04-07T03:39:41.098Z,1.70
2023-04-07T03:42:09.020Z,1.60
2023-04-07T03:44:37.167Z,2.00
2023-04-07T03:47:06.541Z,1.87
2023-04-07T03:49:34.412Z,1.87
2023-04-07T03:52:02.315Z,1.80
2023-04-07T03:54:30.256Z,1.80
2023-04-07T03:56:58.254Z,1.90
2023-04-07T03:59:26.200Z,1.50
2023-04-07T04:01:54.251Z,1.67
2023-04-07T04:04:24.510Z,1.70
2023-04-07T04:06:52.509Z,1.80
2023-04-07T04:09:20.928Z,1.53
2023-04-07T04:11:48.831Z,1.50
2023-04-07T04:14:17.389Z,1.63
2023-04-07T04:16:45.333Z,1.80
2023-04-07T04:19:13.211Z,1.87
2023-04-07T04:21:42.520Z,1.70
2023-04-07T04:24:10.460Z,2.00
2023-04-07T04:26:38.336Z,2.23
2023-04-07T04:29:06.423Z,2.13
2023-04-07T04:31:34.418Z,1.70
2023-04-07T04:34:02.537Z,1.90
2023-04-07T04:36:31.209Z,2.40
2023-04-07T04:39:00.855Z,2.33
2023-04-07T04:41:28.736Z,2.30
2023-04-07T04:43:56.761Z,2.10
2023-04-07T04:46:24.834Z,2.40
2023-04-07T04:48:52.801Z,2.40
2023-04-07T04:51:20.706Z,1.87
2023-04-07T04:53:48.658Z,2.10
2023-04-07T04:56:17.880Z,1.97
2023-04-07T04:58:46.545Z,2.20
2023-04-07T05:01:14.708Z,2.27
2023-04-07T05:03:42.822Z,2.17
2023-04-07T05:06:11.004Z,2.00
2023-04-07T05:08:38.934Z,2.10
2023-04-07T05:11:06.810Z,1.70
2023-04-07T05:13:36.029Z,2.03
2023-04-07T05:16:04.002Z,1.87
2023-04-07T05:18:31.961Z,1.90
2023-04-07T05:21:00.004Z,1.90
2023-04-07T05:23:27.952Z,2.13
2023-04-07T05:25:55.820Z,1.97
2023-04-07T05:28:25.355Z,2.20
2023-04-07T05:30:54.674Z,2.07
2023-04-07T05:33:22.543Z,1.93
2023-04-07T05:35:50.513Z,2.30
2023-04-07T05:38:18.449Z,2.27
2023-04-07T05:40:47.190Z,2.27
2023-04-07T05:43:15.118Z,2.40
2023-04-07T05:45:43.020Z,2.10
2023-04-07T05:48:12.550Z,2.23
2023-04-07T05:50:40.463Z,2.60
2023-04-07T05:53:08.381Z,2.20
2023-04-07T05:55:36.375Z,2.20
2023-04-07T05:58:04.561Z,2.07
2023-04-07T06:00:32.531Z,2.50
2023-04-07T06:03:01.995Z,1.83
2023-04-07T06:05:31.541Z,2.23
2023-04-07T06:07:59.551Z,2.93
2023-04-07T06:10:27.834Z,2.80
2023-04-07T06:12:56.194Z,3.50
2023-04-07T06:15:24.086Z,2.90
2023-04-07T06:17:51.994Z,3.30
2023-04-07T06:20:21.563Z,3.13
2023-04-07T06:22:51.295Z,3.30
2023-04-07T06:25:19.320Z,3.80
2023-04-07T06:27:47.252Z,3.80
2023-04-07T06:30:16.530Z,3.57
2023-04-07T06:32:48.969Z,3.90
2023-04-07T06:35:17.239Z,6.07
2023-04-07T06:37:48.216Z,3.83
2023-04-07T06:40:21.161Z,4.70
2023-04-07T06:43:00.835Z,3.87
2023-04-07T06:45:38.631Z,3.77
2023-04-07T06:48:11.174Z,3.70
2023-04-07T06:50:39.913Z,3.40
2023-04-07T06:53:10.950Z,3.63
2023-04-07T06:55:40.525Z,3.93
2023-04-07T06:58:08.740Z,4.00
2023-04-07T07:00:37.108Z,3.10
2023-04-07T07:03:05.294Z,3.27
2023-04-07T07:05:33.914Z,4.17
2023-04-07T07:08:02.431Z,3.17
2023-04-07T07:10:32.295Z,3.40
2023-04-07T07:13:02.276Z,2.77
2023-04-07T07:15:34.571Z,3.20
2023-04-07T07:18:03.010Z,3.10
2023-04-07T07:20:33.782Z,3.27
2023-04-07T07:23:01.945Z,3.57
2023-04-07T07:25:29.851Z,3.20
2023-04-07T07:27:57.837Z,3.07
2023-04-07T07:30:27.207Z,2.80
2023-04-07T07:32:55.631Z,3.87
2023-04-07T07:35:25.307Z,5.70
2023-04-07T07:37:53.807Z,2.93
2023-04-07T07:40:21.793Z,2.93
2023-04-07T07:42:52.849Z,2.73
2023-04-07T07:45:20.842Z,3.13
2023-04-07T07:47:50.456Z,3.83
2023-04-07T07:50:18.432Z,3.80
2023-04-07T07:52:46.377Z,3.57
2023-04-07T07:55:14.867Z,4.57
2023-04-07T07:57:42.939Z,3.67
2023-04-07T08:00:12.181Z,3.50
2023-04-07T08:02:40.170Z,3.10
2023-04-07T08:05:09.897Z,3.60
2023-04-07T08:07:37.861Z,3.60
2023-04-07T08:10:06.549Z,3.83
2023-04-07T08:12:34.672Z,3.57
2023-04-07T08:15:02.887Z,3.83
2023-04-07T08:17:31.547Z,3.87
2023-04-07T08:19:59.780Z,4.73
2023-04-07T08:22:29.267Z,3.70
2023-04-07T08:24:57.276Z,3.20
2023-04-07T08:27:25.720Z,3.67
2023-04-07T08:30:00.606Z,3.60
2023-04-07T08:32:36.004Z,3.80
2023-04-07T08:35:03.994Z,3.37
2023-04-07T08:37:34.084Z,3.63
2023-04-07T08:40:02.295Z,3.50
2023-04-07T08:42:31.009Z,3.50
2023-04-07T08:45:01.154Z,3.87
2023-04-07T08:47:29.253Z,3.87
2023-04-07T08:49:58.321Z,4.20
2023-04-07T08:52:26.199Z,3.53
2023-04-07T08:54:56.161Z,3.60
2023-04-07T08:57:24.132Z,4.20
2023-04-07T08:59:54.277Z,3.97
2023-04-07T09:02:22.748Z,3.20
2023-04-07T09:04:51.050Z,3.90
2023-04-07T09:07:19.155Z,3.27
2023-04-07T09:09:48.060Z,3.63
2023-04-07T09:12:17.385Z,3.70
2023-04-07T09:14:45.311Z,3.63
2023-04-07T09:17:13.191Z,3.00
2023-04-07T09:19:41.272Z,3.27
2023-04-07T09:22:12.639Z,3.20
2023-04-07T09:24:41.024Z,3.00
2023-04-07T09:27:15.243Z,3.23
2023-04-07T09:29:46.923Z,2.83
2023-04-07T09:32:15.077Z,3.37
2023-04-07T09:34:43.364Z,2.43
2023-04-07T09:37:12.000Z,2.40
2023-04-07T09:39:50.944Z,2.40
2023-04-07T09:42:19.221Z,2.47
2023-04-07T09:44:48.562Z,2.50
2023-04-07T09:47:16.698Z,2.20
2023-04-07T09:49:53.917Z,2.17
2023-04-07T09:52:26.640Z,2.70
2023-04-07T09:54:55.829Z,2.20
2023-04-07T09:57:23.853Z,2.77
2023-04-07T09:59:55.748Z,1.83
2023-04-07T10:02:23.891Z,1.10
2023-04-07T10:04:55.252Z,1.40
2023-04-07T10:07:25.364Z,1.00
2023-04-07T10:09:53.458Z,1.00
2023-04-07T10:12:27.854Z,1.10
2023-04-07T10:14:59.892Z,1.20
2023-04-07T10:17:28.709Z,1.20
2023-04-07T10:19:57.440Z,1.10
2023-04-07T10:22:25.576Z,1.10
2023-04-07T10:24:56.093Z,1.10
2023-04-07T10:27:31.006Z,1.40
2023-04-07T10:30:00.584Z,1.40
2023-04-07T10:32:29.326Z,1.33
2023-04-07T10:35:01.188Z,1.00
2023-04-07T10:37:34.460Z,1.33
2023-04-07T10:40:31.148Z,1.30
2023-04-07T10:42:59.487Z,1.07
2023-04-07T10:46:03.316Z,1.17
2023-04-07T10:48:33.503Z,0.80
2023-04-07T10:51:18.267Z,1.20
2023-04-07T10:54:21.235Z,0.83
2023-04-07T10:57:17.156Z,1.20
2023-04-07T11:00:16.051Z,1.10
2023-04-07T11:02:48.884Z,0.90
2023-04-07T11:05:24.037Z,1.10
2023-04-07T11:07:57.989Z,1.00
2023-04-07T11:10:26.360Z,1.63
2023-04-07T11:13:04.537Z,0.97
2023-04-07T11:15:34.173Z,0.90
2023-04-07T11:18:14.012Z,0.83
2023-04-07T11:20:45.871Z,0.90
2023-04-07T11:23:14.240Z,1.00
2023-04-07T11:25:44.049Z,1.23
2023-04-07T11:28:16.070Z,0.90
2023-04-07T11:30:51.792Z,0.90
2023-04-07T11:33:23.645Z,0.70
2023-04-07T11:35:57.252Z,0.80
2023-04-07T11:38:26.311Z,0.83
2023-04-07T11:40:55.005Z,1.00
2023-04-07T11:43:28.344Z,0.90
2023-04-07T11:46:07.312Z,0.80
2023-04-07T11:48:37.252Z,0.80
2023-04-07T11:51:07.663Z,0.80
2023-04-07T11:53:40.254Z,0.82
2023-04-07T11:56:10.378Z,1.00
2023-04-07T11:58:38.927Z,0.52
2023-04-07T12:01:09.239Z,0.85
2023-04-07T12:03:39.218Z,0.90
2023-04-07T12:06:07.631Z,1.30
2023-04-07T12:08:42.616Z,0.80
2023-04-07T12:11:16.665Z,0.80
2023-04-07T12:13:44.896Z,0.80
2023-04-07T12:16:13.514Z,0.70
2023-04-07T12:18:46.965Z,1.15
2023-04-07T12:21:15.103Z,0.70
2023-04-07T12:23:43.150Z,0.77
2023-04-07T12:26:12.019Z,0.70
2023-04-07T12:28:40.054Z,0.63
2023-04-07T12:31:11.246Z,0.70
2023-04-07T12:33:39.240Z,1.08
2023-04-07T12:36:09.717Z,0.70
2023-04-07T12:38:37.690Z,0.70
2023-04-07T12:41:05.618Z,0.73
2023-04-07T12:43:33.565Z,1.00
2023-04-07T12:46:01.631Z,0.90
2023-04-07T12:48:29.575Z,0.80
2023-04-07T12:50:57.517Z,0.60
2023-04-07T12:53:27.230Z,0.80
2023-04-07T12:55:56.206Z,0.90
2023-04-07T12:58:24.793Z,0.65
2023-04-07T13:00:53.608Z,0.77
2023-04-07T13:03:21.918Z,0.80
2023-04-07T13:05:50.235Z,0.70
2023-04-07T13:08:18.362Z,0.85
2023-04-07T13:10:47.704Z,2.38
2023-04-07T13:13:15.696Z,0.50
2023-04-07T13:15:43.585Z,0.40
2023-04-07T13:18:11.709Z,0.95
2023-04-07T13:20:40.334Z,0.90
2023-04-07T13:23:10.269Z,0.77
2023-04-07T13:25:38.389Z,1.02
2023-04-07T13:28:07.774Z,0.95
2023-04-07T13:30:35.811Z,0.80
2023-04-07T13:33:04.010Z,0.75
2023-04-07T13:35:35.912Z,1.00
2023-04-07T13:38:04.347Z,0.90
2023-04-07T13:40:32.351Z,0.70
2023-04-07T13:43:01.062Z,1.02
2023-04-07T13:45:30.559Z,0.98
2023-04-07T13:47:58.725Z,0.68
2023-04-07T13:50:27.228Z,0.80
2023-04-07T13:52:55.711Z,0.77
2023-04-07T13:55:23.821Z,1.63
2023-04-07T13:57:52.528Z,0.85
2023-04-07T14:00:20.938Z,0.70
2023-04-07T14:02:50.748Z,0.80
2023-04-07T14:05:19.457Z,0.80
2023-04-07T14:07:48.278Z,0.90
2023-04-07T14:10:18.595Z,0.70
2023-04-07T14:12:46.764Z,0.90
2023-04-07T14:15:18.454Z,0.50
2023-04-07T14:17:46.843Z,0.60
2023-04-07T14:20:16.166Z,0.63
2023-04-07T14:22:44.724Z,0.60
2023-04-07T14:25:13.037Z,0.60
2023-04-07T14:27:41.285Z,0.63
2023-04-07T14:30:10.913Z,0.65
2023-04-07T14:32:39.249Z,0.40
2023-04-07T14:35:08.678Z,0.57
2023-04-07T14:37:39.149Z,0.50
2023-04-07T14:40:08.658Z,0.50
2023-04-07T14:42:37.055Z,0.77
2023-04-07T14:45:05.449Z,0.60
2023-04-07T14:47:33.524Z,0.70
2023-04-07T14:50:01.745Z,0.68
2023-04-07T14:52:30.028Z,0.70
2023-04-07T14:55:00.588Z,0.60
2023-04-07T14:57:28.761Z,0.65
2023-04-07T14:59:56.734Z,0.52
2023-04-07T15:02:24.883Z,0.40
2023-04-07T15:04:53.151Z,0.93
2023-04-07T15:07:21.606Z,0.50
2023-04-07T15:09:51.668Z,0.60
2023-04-07T15:12:20.937Z,0.43
2023-04-07T15:14:52.014Z,0.52
2023-04-07T15:17:27.560Z,0.43
2023-04-07T15:20:01.162Z,0.60
2023-04-07T15:22:30.568Z,0.70
2023-04-07T15:24:58.491Z,0.50
2023-04-07T15:27:27.839Z,0.60
2023-04-07T15:29:56.100Z,0.55
2023-04-07T15:32:23.989Z,0.70
2023-04-07T15:34:52.699Z,0.50
2023-04-07T15:37:20.613Z,0.50
2023-04-07T15:39:49.204Z,0.80
2023-04-07T15:42:17.176Z,0.70
2023-04-07T15:44:49.673Z,0.70
2023-04-07T15:47:17.614Z,0.70
2023-04-07T15:49:45.507Z,0.65
2023-04-07T15:52:13.636Z,0.57
2023-04-07T15:54:41.572Z,0.47
2023-04-07T15:57:09.703Z,0.60
2023-04-07T15:59:37.554Z,0.55
2023-04-07T16:02:06.931Z,0.50
2023-04-07T16:04:34.829Z,0.52
2023-04-07T16:07:02.836Z,0.52
2023-04-07T16:09:30.761Z,0.52
2023-04-07T16:11:58.676Z,0.77
2023-04-07T16:14:29.085Z,0.60
2023-04-07T16:16:59.158Z,0.65
2023-04-07T16:19:28.690Z,0.55
2023-04-07T16:21:56.606Z,0.70
2023-04-07T16:24:24.684Z,0.70
2023-04-07T16:26:52.729Z,0.60
2023-04-07T16:29:20.794Z,0.63
2023-04-07T16:31:49.026Z,0.50
2023-04-07T16:34:17.168Z,0.60
2023-04-07T16:36:47.508Z,0.60
2023-04-07T16:39:15.595Z,0.60
2023-04-07T16:41:43.502Z,0.70
2023-04-07T16:44:11.483Z,0.68
2023-04-07T16:46:39.481Z,0.43
2023-04-07T16:49:07.401Z,0.80
2023-04-07T16:51:35.353Z,0.80
2023-04-07T16:54:05.992Z,0.60
2023-04-07T16:56:34.698Z,0.70
2023-04-07T16:59:04.085Z,0.80
2023-04-07T17:01:32.245Z,0.60
2023-04-07T17:04:00.340Z,0.80
2023-04-07T17:06:28.635Z,0.80
2023-04-07T17:08:56.566Z,0.70
2023-04-07T17:11:25.916Z,0.70
2023-04-07T17:13:57.095Z,0.77
2023-04-07T17:16:25.648Z,0.50
2023-04-07T17:18:53.665Z,0.60
2023-04-07T17:21:22.318Z,0.68
2023-04-07T17:23:50.613Z,0.70
2023-04-07T17:26:19.300Z,0.70
2023-04-07T17:28:48.756Z,0.68
2023-04-07T17:31:16.903Z,1.13
2023-04-07T17:33:44.943Z,1.40
2023-04-07T17:36:12.884Z,0.90
2023-04-07T17:38:40.886Z,0.90
2023-04-07T17:41:09.099Z,0.82
2023-04-07T17:43:37.108Z,0.85
2023-04-07T17:46:06.552Z,0.73
2023-04-07T17:48:34.484Z,0.82
2023-04-07T17:51:02.667Z,1.00
2023-04-07T17:53:31.262Z,0.82
2023-04-07T17:55:59.850Z,0.80
2023-04-07T17:58:27.962Z,1.55
2023-04-07T18:00:55.843Z,1.60
2023-04-07T18:03:25.777Z,1.88
2023-04-07T18:05:53.696Z,1.63
2023-04-07T18:08:21.579Z,2.15
2023-04-07T18:10:49.487Z,1.63
2023-04-07T18:13:17.426Z,1.83
2023-04-07T18:15:45.424Z,1.40
2023-04-07T18:18:13.560Z,1.40
2023-04-07T18:20:42.836Z,1.57
2023-04-07T18:23:10.766Z,1.60
2023-04-07T18:25:38.695Z,1.10
2023-04-07T18:28:07.110Z,2.50
2023-04-07T18:30:35.000Z,8.87
2023-04-07T18:33:03.101Z,2.13
2023-04-07T18:35:31.310Z,1.70
2023-04-07T18:38:00.889Z,1.40
2023-04-07T18:40:32.664Z,1.37
2023-04-07T18:43:00.737Z,1.40
2023-04-07T18:45:29.066Z,1.30
2023-04-07T18:47:57.095Z,1.43
2023-04-07T18:50:25.208Z,1.60
2023-04-07T18:52:53.263Z,1.13
2023-04-07T18:55:22.816Z,1.20
2023-04-07T18:57:50.726Z,1.43
2023-04-07T19:00:18.836Z,3.30
2023-04-07T19:02:47.503Z,1.37
2023-04-07T19:05:15.760Z,1.70
2023-04-07T19:07:43.641Z,1.37
2023-04-07T19:10:11.651Z,2.17
2023-04-07T19:12:40.968Z,2.77
2023-04-07T19:15:09.823Z,3.50
2023-04-07T19:17:37.885Z,3.03
2023-04-07T19:20:07.419Z,3.27
2023-04-07T19:22:35.356Z,2.63
2023-04-07T19:25:03.510Z,2.10
2023-04-07T19:27:31.447Z,2.00
2023-04-07T19:30:00.747Z,8.33
2023-04-07T19:32:28.850Z,5.80
2023-04-07T19:34:57.156Z,4.40
2023-04-07T19:37:25.285Z,4.90
2023-04-07T19:40:02.449Z,3.27
2023-04-07T19:42:31.393Z,2.63
2023-04-07T19:45:02.612Z,2.83
2023-04-07T19:47:30.719Z,3.80
2023-04-07T19:49:58.828Z,3.80
2023-04-07T19:52:27.085Z,7.27
2023-04-07T19:54:54.955Z,6.07
2023-04-07T19:57:22.982Z,2.50
2023-04-07T19:59:50.952Z,1.90
2023-04-07T20:02:21.634Z,2.23
2023-04-07T20:04:49.972Z,5.77
2023-04-07T20:07:17.923Z,3.37
2023-04-07T20:09:45.888Z,2.10
2023-04-07T20:12:14.893Z,1.60
2023-04-07T20:14:43.172Z,3.40
2023-04-07T20:17:11.042Z,2.70
2023-04-07T20:19:41.167Z,3.60
2023-04-07T20:22:09.279Z,2.67
2023-04-07T20:24:37.146Z,2.30
2023-04-07T20:27:05.034Z,2.43
2023-04-07T20:29:33.400Z,2.20
2023-04-07T20:32:01.278Z,2.57
2023-04-07T20:34:29.200Z,1.70
2023-04-07T20:36:59.000Z,2.03
2023-04-07T20:39:27.167Z,2.20
2023-04-07T20:41:55.237Z,2.10
2023-04-07T20:44:23.508Z,2.00
2023-04-07T20:46:51.719Z,1.60
2023-04-07T20:49:19.766Z,1.80
2023-04-07T20:51:48.096Z,1.60
2023-04-07T20:54:17.543Z,1.60
2023-04-07T20:56:45.685Z,2.30
2023-04-07T20:59:13.795Z,2.27
2023-04-07T21:01:41.760Z,2.30
2023-04-07T21:04:10.753Z,2.50
2023-04-07T21:06:38.727Z,2.30
2023-04-07T21:09:08.613Z,2.57
2023-04-07T21:11:38.012Z,2.97
2023-04-07T21:14:06.340Z,2.80
2023-04-07T21:16:34.324Z,2.30
2023-04-07T21:19:03.475Z,2.80
2023-04-07T21:21:31.566Z,3.20
2023-04-07T21:23:59.454Z,2.70
2023-04-07T21:26:27.688Z,2.30
2023-04-07T21:28:57.013Z,2.47
2023-04-07T21:31:25.533Z,2.53
2023-04-07T21:33:53.641Z,2.57
2023-04-07T21:36:21.543Z,2.30
2023-04-07T21:38:49.659Z,2.00
2023-04-07T21:41:17.891Z,2.90
2023-04-07T21:43:46.084Z,2.30
2023-04-07T21:46:16.436Z,2.47
2023-04-07T21:48:44.435Z,2.30
2023-04-07T21:51:12.575Z,2.20
2023-04-07T21:53:40.503Z,2.27
2023-04-07T21:56:09.878Z,2.10
2023-04-07T21:58:37.824Z,2.13
2023-04-07T22:01:05.852Z,2.50
2023-04-07T22:03:35.608Z,2.20
2023-04-07T22:06:03.646Z,2.40
2023-04-07T22:08:31.546Z,2.30
2023-04-07T22:10:59.490Z,2.77
2023-04-07T22:13:27.398Z,2.00
2023-04-07T22:15:55.867Z,2.10
2023-04-07T22:18:23.885Z,2.60
2023-04-07T22:20:53.130Z,2.40
2023-04-07T22:23:21.004Z,2.27
2023-04-07T22:25:49.217Z,2.10
2023-04-07T22:28:17.133Z,2.50
2023-04-07T22:30:45.030Z,2.23
2023-04-07T22:33:12.931Z,2.30
2023-04-07T22:35:41.005Z,2.10
2023-04-07T22:38:10.470Z,2.47
2023-04-07T22:40:38.362Z,2.30
2023-04-07T22:43:06.278Z,2.10
2023-04-07T22:45:35.439Z,3.23
2023-04-07T22:48:03.415Z,2.50
2023-04-07T22:50:31.422Z,2.97
2023-04-07T22:52:59.348Z,2.80
2023-04-07T22:55:29.672Z,2.63
2023-04-07T22:57:57.671Z,2.30
2023-04-07T23:00:25.758Z,2.40
2023-04-07T23:02:53.962Z,2.60
2023-04-07T23:05:22.081Z,2.40
2023-04-07T23:07:51.396Z,2.70
2023-04-07T23:10:19.424Z,2.80
2023-04-07T23:12:48.780Z,2.70
2023-04-07T23:15:16.719Z,3.10
2023-04-07T23:17:44.810Z,3.07
2023-04-07T23:20:13.379Z,2.90
2023-04-07T23:22:41.579Z,3.17
2023-04-07T23:25:10.353Z,3.37
2023-04-07T23:27:38.292Z,2.97
2023-04-07T23:30:09.164Z,2.80
2023-04-07T23:32:37.144Z,2.90
2023-04-07T23:35:06.725Z,3.03
2023-04-07T23:37:34.613Z,2.80
2023-04-07T23:40:02.522Z,3.00
2023-04-07T23:42:30.525Z,2.77
2023-04-07T23:44:58.419Z,2.40
2023-04-07T23:47:27.719Z,2.97
2023-04-07T23:49:55.676Z,2.60
2023-04-07T23:52:23.544Z,2.53
2023-04-07T23:54:51.947Z,2.53
2023-04-07T23:57:19.882Z,2.70
2023-04-07T23:59:47.777Z,2.40
